ADDS METAR Data INFO
IDs: Format: Raw Decoded Include TAF

Data at: 2111 UTC 22 Oct 2017

KCVC 222036Z AUTO 12004KT 10SM SCT060 BKN070 27/18 A3015 RMK AO2
KCVC 221936Z AUTO 11003KT 10SM SCT035 BKN047 BKN060 27/18 A3017 RMK AO2
KCVC 221916Z AUTO 12003KT 10SM BKN037 BKN047 OVC060 26/18 A3017 RMK AO2
KCVC 221837Z AUTO 09006KT 10SM BKN037 BKN043 OVC049 26/17 A3018 RMK AO2
KCVC 221816Z AUTO 12004KT 7SM SCT035 BKN050 OVC060 27/17 A3019 RMK AO2
KCVC 221757Z AUTO 12005KT 2SM SCT035 BKN044 OVC060 27/17 A3020 RMK AO2
KCVC 221717Z AUTO 11006KT 7SM SCT030 BKN044 OVC050 26/17 A3022 RMK AO2
KCVC 221536Z AUTO 11003KT 10SM BKN060 24/17 A3025 RMK AO2
KCVC 221337Z AUTO 08006KT 10SM BKN026 OVC055 18/16 A3029 RMK AO2
KCVC 221237Z AUTO 07005KT 1 3/4SM OVC055 16/14 A3028 RMK AO2
KCVC 221216Z AUTO 08005KT 10SM BKN055 16/14 A3026 RMK AO2
KCVC 221136Z AUTO 07003KT 10SM CLR 15/13 A3026 RMK AO2
KCVC 220836Z AUTO 00000KT 10SM CLR 15/12 A3025 RMK AO2
KCVC 220656Z AUTO 07004KT 10SM CLR 16/13 A3026 RMK AO2
KCVC 220637Z AUTO 06003KT 10SM CLR 16/13 A3026 RMK AO2
KCVC 220617Z AUTO 08003KT 10SM CLR 16/13 A3026 RMK AO2
KCVC 220536Z AUTO 00000KT 10SM CLR 16/13 A3027 RMK AO2
KCVC 220417Z AUTO 08003KT 10SM CLR 17/14 A3028 RMK AO2
KCVC 220317Z AUTO 00000KT 10SM CLR 16/14 A3028 RMK AO2
KCVC 220256Z AUTO 00000KT 10SM CLR 17/14 A3028 RMK AO2
KCVC 220236Z AUTO 06003KT 10SM CLR 17/14 A3028 RMK AO2
KCVC 220217Z AUTO 08003KT 10SM CLR 18/14 A3027 RMK AO2
KCVC 220118Z AUTO 06003KT 10SM CLR 18/14 A3027 RMK AO2
KCVC 220057Z AUTO 00000KT 10SM CLR 18/14 A3027 RMK AO2
KCVC 212337Z AUTO 00000KT 10SM CLR 19/15 A3027 RMK AO2
KCVC 212316Z AUTO 00000KT 10SM CLR 19/14 A3026 RMK AO2
KCVC 212256Z AUTO 00000KT 10SM CLR 20/14 A3026 RMK AO2
KCVC 212117Z AUTO 09004KT 10SM CLR 26/13 A3026 RMK AO2
KCVC 212057Z AUTO 08006KT 10SM CLR 26/13 A3025 RMK AO2
KCVC 212037Z AUTO 08005KT 10SM CLR 26/13 A3025 RMK AO2
KCVC 211936Z AUTO 11003KT 10SM CLR 25/13 A3025 RMK AO2
KCVC 211856Z AUTO 09005KT 10SM CLR 25/13 A3025 RMK AO2
KCVC 211836Z AUTO 08006KT 10SM CLR 26/13 A3026 RMK AO2
KCVC 211757Z AUTO 10004KT 10SM CLR 24/13 A3027 RMK AO2
KCVC 211739Z AUTO 09005KT 10SM CLR 24/13 A3028 RMK AO2
KCVC 211717Z AUTO 13003KT 7SM CLR 25/12 A3029 RMK AO2
KCVC 211657Z AUTO 11003KT 10SM CLR 25/12 A3029 RMK AO2
KCVC 211557Z AUTO 09004KT 10SM CLR 22/15 A3030 RMK AO2
KCVC 211539Z AUTO 07004KT 10SM CLR 22/15 A3030 RMK AO2
KCVC 211516Z AUTO 08003KT 10SM CLR 21/14 A3031 RMK AO2
KCVC 211417Z AUTO 07004KT 10SM CLR 17/12 A3031 RMK AO2
KCVC 211256Z AUTO 06003KT 10SM CLR 14/11 A3029 RMK AO2
KCVC 211216Z AUTO 00000KT 10SM CLR 12/09 A3028 RMK AO2
KCVC 211116Z AUTO 00000KT 10SM CLR 11/09 A3027 RMK AO2
KCVC 211037Z AUTO 06003KT 10SM CLR 11/09 A3026 RMK AO2
KCVC 211016Z AUTO 00000KT 10SM CLR 11/09 A3025 RMK AO2
KCVC 210956Z AUTO 00000KT 10SM CLR 11/09 A3025 RMK AO2